sensor_id;sensor_type;location;lat;lon;timestamp;pressure;altitude;pressure_sealevel;temperature;humidity
61908;BME280;47864;52.526;19.672;2022-11-03T00:00:15;101452.22;;;7.74;100.00
61908;BME280;47864;52.526;19.672;2022-11-03T00:02:17;101505.53;;;7.92;100.00
61908;BME280;47864;52.526;19.672;2022-11-03T00:04:20;101474.56;;;7.70;100.00
61908;BME280;47864;52.526;19.672;2022-11-03T00:06:22;101514.63;;;7.88;100.00
61908;BME280;47864;52.526;19.672;2022-11-03T00:08:23;101509.81;;;7.82;100.00
61908;BME280;47864;52.526;19.672;2022-11-03T00:10:25;101476.91;;;7.62;100.00
61908;BME280;47864;52.526;19.672;2022-11-03T00:12:27;101428.00;;;7.33;100.00
61908;BME280;47864;52.526;19.672;2022-11-03T00:14:30;101475.84;;;7.64;100.00
61908;BME280;47864;52.526;19.672;2022-11-03T00:16:32;101430.84;;;7.30;100.00
61908;BME280;47864;52.526;19.672;2022-11-03T00:18:34;101452.69;;;7.32;100.00
61908;BME280;47864;52.526;19.672;2022-11-03T00:20:36;101508.59;;;7.62;100.00
61908;BME280;47864;52.526;19.672;2022-11-03T00:22:38;101511.31;;;7.60;100.00
61908;BME280;47864;52.526;19.672;2022-11-03T00:24:39;101470.59;;;7.52;100.00
61908;BME280;47864;52.526;19.672;2022-11-03T00:26:41;101522.81;;;7.72;100.00
61908;BME280;47864;52.526;19.672;2022-11-03T00:28:44;101395.34;;;6.97;100.00
61908;BME280;47864;52.526;19.672;2022-11-03T00:30:46;101490.25;;;7.48;100.00
61908;BME280;47864;52.526;19.672;2022-11-03T00:32:48;101432.00;;;7.25;100.00
61908;BME280;47864;52.526;19.672;2022-11-03T00:34:50;101507.75;;;7.61;100.00
61908;BME280;47864;52.526;19.672;2022-11-03T00:36:51;101521.78;;;7.62;100.00
61908;BME280;47864;52.526;19.672;2022-11-03T00:38:53;101480.16;;;7.29;100.00
61908;BME280;47864;52.526;19.672;2022-11-03T00:41:03;101528.34;;;7.56;100.00
61908;BME280;47864;52.526;19.672;2022-11-03T00:43:05;101473.31;;;7.14;100.00
61908;BME280;47864;52.526;19.672;2022-11-03T00:45:08;101504.75;;;7.30;100.00
61908;BME280;47864;52.526;19.672;2022-11-03T00:47:10;101495.56;;;7.22;100.00
61908;BME280;47864;52.526;19.672;2022-11-03T00:49:11;101488.50;;;7.23;100.00
61908;BME280;47864;52.526;19.672;2022-11-03T00:51:27;101531.09;;;7.55;100.00
61908;BME280;47864;52.526;19.672;2022-11-03T00:53:29;101536.06;;;7.47;100.00
61908;BME280;47864;52.526;19.672;2022-11-03T00:55:31;101481.97;;;7.16;100.00
61908;BME280;47864;52.526;19.672;2022-11-03T00:57:33;101398.56;;;6.64;100.00
61908;BME280;47864;52.526;19.672;2022-11-03T00:59:35;101532.91;;;7.42;100.00
61908;BME280;47864;52.526;19.672;2022-11-03T01:01:43;101501.91;;;7.20;100.00
61908;BME280;47864;52.526;19.672;2022-11-03T01:03:51;101501.47;;;7.13;100.00
61908;BME280;47864;52.526;19.672;2022-11-03T01:05:53;101501.47;;;7.26;100.00
61908;BME280;47864;52.526;19.672;2022-11-03T01:07:55;101525.31;;;7.37;100.00
61908;BME280;47864;52.526;19.672;2022-11-03T01:09:57;101469.75;;;6.90;100.00
61908;BME280;47864;52.526;19.672;2022-11-03T01:12:05;101516.56;;;7.11;100.00
61908;BME280;47864;52.526;19.672;2022-11-03T01:14:09;101546.03;;;7.31;100.00
61908;BME280;47864;52.526;19.672;2022-11-03T01:16:11;101521.66;;;7.14;100.00
61908;BME280;47864;52.526;19.672;2022-11-03T01:18:13;101532.94;;;7.16;100.00
61908;BME280;47864;52.526;19.672;2022-11-03T01:20:14;101417.50;;;6.44;100.00
61908;BME280;47864;52.526;19.672;2022-11-03T01:22:17;101543.06;;;7.22;100.00
61908;BME280;47864;52.526;19.672;2022-11-03T01:24:20;101517.31;;;7.13;100.00
61908;BME280;47864;52.526;19.672;2022-11-03T01:26:21;101449.56;;;6.76;100.00
61908;BME280;47864;52.526;19.672;2022-11-03T01:28:23;101492.31;;;7.06;100.00
61908;BME280;47864;52.526;19.672;2022-11-03T01:30:25;101525.75;;;7.18;100.00
61908;BME280;47864;52.526;19.672;2022-11-03T01:32:27;101442.41;;;6.65;100.00
61908;BME280;47864;52.526;19.672;2022-11-03T01:34:29;101496.31;;;6.86;100.00
61908;BME280;47864;52.526;19.672;2022-11-03T01:36:31;101495.16;;;6.78;100.00
61908;BME280;47864;52.526;19.672;2022-11-03T01:38:34;101536.84;;;6.98;100.00
61908;BME280;47864;52.526;19.672;2022-11-03T01:40:36;101508.91;;;6.43;100.00
61908;BME280;47864;52.526;19.672;2022-11-03T01:42:38;101427.47;;;5.87;100.00
61908;BME280;47864;52.526;19.672;2022-11-03T01:44:47;101395.44;;;5.80;100.00
61908;BME280;47864;52.526;19.672;2022-11-03T01:49:04;101503.09;;;6.38;100.00
61908;BME280;47864;52.526;19.672;2022-11-03T01:51:09;101507.94;;;6.44;100.00
61908;BME280;47864;52.526;19.672;2022-11-03T01:53:15;101534.47;;;6.68;100.00
61908;BME280;47864;52.526;19.672;2022-11-03T01:55:22;101507.00;;;6.45;100.00
61908;BME280;47864;52.526;19.672;2022-11-03T01:57:31;101524.25;;;6.64;100.00
61908;BME280;47864;52.526;19.672;2022-11-03T01:59:35;101525.72;;;6.68;100.00
61908;BME280;47864;52.526;19.672;2022-11-03T02:01:37;101551.97;;;6.69;100.00
61908;BME280;47864;52.526;19.672;2022-11-03T02:03:44;101478.09;;;6.31;100.00
61908;BME280;47864;52.526;19.672;2022-11-03T02:05:48;101523.72;;;6.59;100.00
61908;BME280;47864;52.526;19.672;2022-11-03T02:07:57;101508.63;;;6.61;100.00
61908;BME280;47864;52.526;19.672;2022-11-03T02:10:02;101544.91;;;6.70;100.00
61908;BME280;47864;52.526;19.672;2022-11-03T02:12:05;101391.03;;;5.81;100.00
61908;BME280;47864;52.526;19.672;2022-11-03T02:14:11;101535.13;;;6.72;100.00
61908;BME280;47864;52.526;19.672;2022-11-03T02:16:19;101492.56;;;6.38;100.00
61908;BME280;47864;52.526;19.672;2022-11-03T02:18:31;101418.91;;;5.97;100.00
61908;BME280;47864;52.526;19.672;2022-11-03T02:20:35;101516.00;;;6.68;100.00
61908;BME280;47864;52.526;19.672;2022-11-03T02:22:59;101493.41;;;6.52;100.00
61908;BME280;47864;52.526;19.672;2022-11-03T02:27:42;101510.41;;;6.47;100.00
61908;BME280;47864;52.526;19.672;2022-11-03T02:29:45;101434.06;;;5.94;100.00
61908;BME280;47864;52.526;19.672;2022-11-03T02:32:03;101498.25;;;6.32;100.00
61908;BME280;47864;52.526;19.672;2022-11-03T02:34:07;101534.44;;;6.56;100.00
61908;BME280;47864;52.526;19.672;2022-11-03T02:39:08;101501.38;;;6.25;100.00
61908;BME280;47864;52.526;19.672;2022-11-03T02:41:13;101530.50;;;6.36;100.00
61908;BME280;47864;52.526;19.672;2022-11-03T02:43:17;101488.13;;;5.99;100.00
61908;BME280;47864;52.526;19.672;2022-11-03T02:45:21;101503.09;;;5.99;100.00
61908;BME280;47864;52.526;19.672;2022-11-03T02:47:26;101429.88;;;5.50;100.00
61908;BME280;47864;52.526;19.672;2022-11-03T02:49:30;101560.63;;;6.05;100.00
61908;BME280;47864;52.526;19.672;2022-11-03T02:51:32;101556.69;;;5.98;100.00
61908;BME280;47864;52.526;19.672;2022-11-03T02:53:39;101547.94;;;5.97;100.00
61908;BME280;47864;52.526;19.672;2022-11-03T02:56:10;101527.81;;;5.82;100.00
61908;BME280;47864;52.526;19.672;2022-11-03T02:58:34;101549.28;;;5.90;100.00
61908;BME280;47864;52.526;19.672;2022-11-03T03:03:08;101551.44;;;5.84;100.00
61908;BME280;47864;52.526;19.672;2022-11-03T03:05:13;101546.03;;;5.85;100.00
61908;BME280;47864;52.526;19.672;2022-11-03T03:07:23;101549.91;;;5.80;100.00
61908;BME280;47864;52.526;19.672;2022-11-03T03:09:32;101435.09;;;4.95;100.00
61908;BME280;47864;52.526;19.672;2022-11-03T03:11:40;101560.84;;;5.73;100.00
61908;BME280;47864;52.526;19.672;2022-11-03T03:13:43;101547.13;;;5.54;100.00
61908;BME280;47864;52.526;19.672;2022-11-03T03:16:05;101565.16;;;5.60;100.00
61908;BME280;47864;52.526;19.672;2022-11-03T03:18:28;101562.34;;;5.63;100.00
61908;BME280;47864;52.526;19.672;2022-11-03T03:20:40;101574.13;;;5.58;100.00
61908;BME280;47864;52.526;19.672;2022-11-03T03:22:53;101571.75;;;5.53;100.00
61908;BME280;47864;52.526;19.672;2022-11-03T03:27:15;101511.25;;;5.11;100.00
61908;BME280;47864;52.526;19.672;2022-11-03T03:29:42;101485.03;;;4.95;100.00
61908;BME280;47864;52.526;19.672;2022-11-03T03:31:50;101490.66;;;4.89;100.00
61908;BME280;47864;52.526;19.672;2022-11-03T03:33:55;101544.22;;;5.16;100.00
61908;BME280;47864;52.526;19.672;2022-11-03T03:36:09;101570.34;;;5.33;100.00
61908;BME280;47864;52.526;19.672;2022-11-03T03:38:21;101543.75;;;5.10;100.00
61908;BME280;47864;52.526;19.672;2022-11-03T03:40:31;101575.16;;;5.27;100.00
61908;BME280;47864;52.526;19.672;2022-11-03T03:42:36;101511.22;;;4.82;100.00
61908;BME280;47864;52.526;19.672;2022-11-03T03:44:39;101543.00;;;4.93;100.00
61908;BME280;47864;52.526;19.672;2022-11-03T03:46:50;101577.84;;;5.11;100.00
61908;BME280;47864;52.526;19.672;2022-11-03T03:48:53;101568.16;;;4.97;100.00
61908;BME280;47864;52.526;19.672;2022-11-03T03:50:55;101570.22;;;4.92;100.00
61908;BME280;47864;52.526;19.672;2022-11-03T03:53:00;101573.41;;;4.97;100.00
61908;BME280;47864;52.526;19.672;2022-11-03T03:55:03;101570.00;;;4.95;100.00
61908;BME280;47864;52.526;19.672;2022-11-03T03:57:12;101544.84;;;4.77;100.00
61908;BME280;47864;52.526;19.672;2022-11-03T03:59:14;101427.53;;;4.02;100.00
61908;BME280;47864;52.526;19.672;2022-11-03T04:01:16;101505.16;;;4.52;100.00
61908;BME280;47864;52.526;19.672;2022-11-03T04:03:20;101457.44;;;4.30;100.00
61908;BME280;47864;52.526;19.672;2022-11-03T04:05:23;101525.53;;;4.63;100.00
61908;BME280;47864;52.526;19.672;2022-11-03T04:07:24;101542.09;;;4.79;100.00
61908;BME280;47864;52.526;19.672;2022-11-03T04:09:26;101526.06;;;4.69;100.00
61908;BME280;47864;52.526;19.672;2022-11-03T04:11:28;101575.47;;;4.92;100.00
61908;BME280;47864;52.526;19.672;2022-11-03T04:13:30;101531.00;;;4.59;100.00
61908;BME280;47864;52.526;19.672;2022-11-03T04:15:32;101537.50;;;4.68;100.00
61908;BME280;47864;52.526;19.672;2022-11-03T04:17:34;101548.47;;;4.75;100.00
61908;BME280;47864;52.526;19.672;2022-11-03T04:19:36;101536.91;;;4.63;100.00
61908;BME280;47864;52.526;19.672;2022-11-03T04:21:38;101572.44;;;4.84;100.00
61908;BME280;47864;52.526;19.672;2022-11-03T04:23:40;101553.16;;;4.70;100.00
61908;BME280;47864;52.526;19.672;2022-11-03T04:25:47;101555.28;;;4.63;100.00
61908;BME280;47864;52.526;19.672;2022-11-03T04:27:50;101572.28;;;4.57;100.00
61908;BME280;47864;52.526;19.672;2022-11-03T04:30:16;101529.19;;;4.30;100.00
61908;BME280;47864;52.526;19.672;2022-11-03T04:32:16;101567.88;;;4.58;100.00
61908;BME280;47864;52.526;19.672;2022-11-03T04:34:18;101571.41;;;4.57;100.00
61908;BME280;47864;52.526;19.672;2022-11-03T04:36:22;101547.81;;;4.41;100.00
61908;BME280;47864;52.526;19.672;2022-11-03T04:38:26;101560.34;;;4.52;100.00
61908;BME280;47864;52.526;19.672;2022-11-03T04:40:28;101574.22;;;4.54;100.00
61908;BME280;47864;52.526;19.672;2022-11-03T04:42:31;101570.44;;;4.44;100.00
61908;BME280;47864;52.526;19.672;2022-11-03T04:44:33;101573.72;;;4.47;100.00
61908;BME280;47864;52.526;19.672;2022-11-03T04:46:35;101561.19;;;4.37;100.00
61908;BME280;47864;52.526;19.672;2022-11-03T04:48:37;101584.72;;;4.54;100.00
61908;BME280;47864;52.526;19.672;2022-11-03T04:50:39;101591.69;;;4.55;100.00
61908;BME280;47864;52.526;19.672;2022-11-03T04:54:52;101537.78;;;4.18;100.00
61908;BME280;47864;52.526;19.672;2022-11-03T04:56:54;101513.25;;;4.03;100.00
61908;BME280;47864;52.526;19.672;2022-11-03T04:58:57;101588.47;;;4.50;100.00
61908;BME280;47864;52.526;19.672;2022-11-03T05:01:00;101585.09;;;4.48;100.00
61908;BME280;47864;52.526;19.672;2022-11-03T05:03:03;101537.28;;;4.11;100.00
61908;BME280;47864;52.526;19.672;2022-11-03T05:05:14;101551.75;;;4.18;100.00
61908;BME280;47864;52.526;19.672;2022-11-03T05:07:25;101582.31;;;4.35;100.00
61908;BME280;47864;52.526;19.672;2022-11-03T05:09:30;101516.63;;;3.90;100.00
61908;BME280;47864;52.526;19.672;2022-11-03T05:11:41;101546.59;;;4.01;100.00
61908;BME280;47864;52.526;19.672;2022-11-03T05:13:43;101552.78;;;4.00;100.00
61908;BME280;47864;52.526;19.672;2022-11-03T05:15:47;101516.56;;;3.75;100.00
61908;BME280;47864;52.526;19.672;2022-11-03T05:17:50;101548.03;;;3.91;100.00
61908;BME280;47864;52.526;19.672;2022-11-03T05:19:57;101558.81;;;4.02;100.00
61908;BME280;47864;52.526;19.672;2022-11-03T05:22:02;101586.75;;;4.19;100.00
61908;BME280;47864;52.526;19.672;2022-11-03T05:24:10;101562.50;;;3.98;100.00
61908;BME280;47864;52.526;19.672;2022-11-03T05:26:29;101478.13;;;3.43;100.00
61908;BME280;47864;52.526;19.672;2022-11-03T05:28:48;101578.44;;;3.95;100.00
61908;BME280;47864;52.526;19.672;2022-11-03T05:30:51;101519.41;;;3.55;100.00
61908;BME280;47864;52.526;19.672;2022-11-03T05:32:53;101527.97;;;3.59;100.00
61908;BME280;47864;52.526;19.672;2022-11-03T05:34:55;101590.72;;;3.95;100.00
61908;BME280;47864;52.526;19.672;2022-11-03T05:37:30;101536.63;;;3.61;100.00
61908;BME280;47864;52.526;19.672;2022-11-03T05:39:36;101588.34;;;3.90;100.00
61908;BME280;47864;52.526;19.672;2022-11-03T05:41:38;101421.25;;;2.96;100.00
61908;BME280;47864;52.526;19.672;2022-11-03T05:43:40;101553.63;;;3.85;100.00
61908;BME280;47864;52.526;19.672;2022-11-03T05:45:42;101577.34;;;3.99;100.00
61908;BME280;47864;52.526;19.672;2022-11-03T05:47:44;101555.41;;;3.85;100.00
61908;BME280;47864;52.526;19.672;2022-11-03T05:49:48;101582.09;;;3.93;100.00
61908;BME280;47864;52.526;19.672;2022-11-03T05:51:51;101426.50;;;2.96;100.00
61908;BME280;47864;52.526;19.672;2022-11-03T05:53:56;101601.81;;;4.00;100.00
61908;BME280;47864;52.526;19.672;2022-11-03T05:56:02;101581.38;;;3.89;100.00
61908;BME280;47864;52.526;19.672;2022-11-03T05:58:29;101477.78;;;3.33;100.00
61908;BME280;47864;52.526;19.672;2022-11-03T06:00:36;101565.13;;;3.82;100.00
61908;BME280;47864;52.526;19.672;2022-11-03T06:02:44;101572.50;;;3.76;100.00
61908;BME280;47864;52.526;19.672;2022-11-03T06:04:47;101566.56;;;3.72;100.00
61908;BME280;47864;52.526;19.672;2022-11-03T06:06:54;101617.28;;;4.04;100.00
61908;BME280;47864;52.526;19.672;2022-11-03T06:09:02;101567.25;;;3.76;100.00
61908;BME280;47864;52.526;19.672;2022-11-03T06:11:18;101613.81;;;4.04;100.00
61908;BME280;47864;52.526;19.672;2022-11-03T06:13:35;101593.44;;;3.93;100.00
61908;BME280;47864;52.526;19.672;2022-11-03T06:15:41;101557.84;;;3.72;100.00
61908;BME280;47864;52.526;19.672;2022-11-03T06:17:44;101617.13;;;4.23;100.00
61908;BME280;47864;52.526;19.672;2022-11-03T06:19:48;101605.00;;;4.20;100.00
61908;BME280;47864;52.526;19.672;2022-11-03T06:21:52;101595.47;;;4.19;100.00
61908;BME280;47864;52.526;19.672;2022-11-03T06:23:55;101608.66;;;4.34;100.00
61908;BME280;47864;52.526;19.672;2022-11-03T06:25:57;101579.59;;;4.21;100.00
61908;BME280;47864;52.526;19.672;2022-11-03T06:28:01;101582.66;;;4.29;100.00
61908;BME280;47864;52.526;19.672;2022-11-03T06:32:24;101590.63;;;4.43;100.00
61908;BME280;47864;52.526;19.672;2022-11-03T06:34:42;101625.72;;;4.72;100.00
61908;BME280;47864;52.526;19.672;2022-11-03T06:36:46;101586.78;;;4.49;100.00
61908;BME280;47864;52.526;19.672;2022-11-03T06:38:56;101601.56;;;4.66;100.00
61908;BME280;47864;52.526;19.672;2022-11-03T06:41:01;101582.63;;;4.61;100.00
61908;BME280;47864;52.526;19.672;2022-11-03T06:43:45;101634.72;;;4.98;100.00
61908;BME280;47864;52.526;19.672;2022-11-03T06:45:48;101590.94;;;4.83;100.00
61908;BME280;47864;52.526;19.672;2022-11-03T06:47:53;101629.88;;;5.20;100.00
61908;BME280;47864;52.526;19.672;2022-11-03T06:49:57;101556.09;;;4.79;100.00
61908;BME280;47864;52.526;19.672;2022-11-03T06:54:20;101515.25;;;4.74;100.00
61908;BME280;47864;52.526;19.672;2022-11-03T06:56:24;101531.88;;;4.88;100.00
61908;BME280;47864;52.526;19.672;2022-11-03T06:58:31;101581.22;;;5.27;100.00
61908;BME280;47864;52.526;19.672;2022-11-03T07:00:38;101571.38;;;5.31;100.00
61908;BME280;47864;52.526;19.672;2022-11-03T07:03:17;101641.78;;;5.84;100.00
61908;BME280;47864;52.526;19.672;2022-11-03T07:05:23;101646.22;;;5.84;100.00
61908;BME280;47864;52.526;19.672;2022-11-03T07:07:25;101614.25;;;5.76;100.00
61908;BME280;47864;52.526;19.672;2022-11-03T07:09:27;101600.34;;;5.73;100.00
61908;BME280;47864;52.526;19.672;2022-11-03T07:11:33;101516.06;;;5.32;100.00
61908;BME280;47864;52.526;19.672;2022-11-03T07:13:36;101457.06;;;5.08;100.00
61908;BME280;47864;52.526;19.672;2022-11-03T07:15:38;101583.97;;;5.97;100.00
61908;BME280;47864;52.526;19.672;2022-11-03T07:17:40;101594.81;;;6.19;100.00
61908;BME280;47864;52.526;19.672;2022-11-03T07:19:43;101581.47;;;6.22;100.00
61908;BME280;47864;52.526;19.672;2022-11-03T07:21:55;101612.59;;;6.57;100.00
61908;BME280;47864;52.526;19.672;2022-11-03T07:23:59;101625.63;;;6.85;100.00
61908;BME280;47864;52.526;19.672;2022-11-03T07:26:01;101626.81;;;6.94;100.00
61908;BME280;47864;52.526;19.672;2022-11-03T07:28:03;101512.78;;;6.38;100.00
61908;BME280;47864;52.526;19.672;2022-11-03T07:30:15;101620.84;;;7.17;100.00
61908;BME280;47864;52.526;19.672;2022-11-03T07:32:23;101616.31;;;7.06;100.00
61908;BME280;47864;52.526;19.672;2022-11-03T07:34:30;101492.13;;;6.44;100.00
61908;BME280;47864;52.526;19.672;2022-11-03T07:36:32;101520.44;;;6.68;100.00
61908;BME280;47864;52.526;19.672;2022-11-03T07:38:34;101578.41;;;7.20;100.00
61908;BME280;47864;52.526;19.672;2022-11-03T07:40:36;101575.06;;;7.31;100.00
61908;BME280;47864;52.526;19.672;2022-11-03T07:42:38;101597.41;;;7.50;100.00
61908;BME280;47864;52.526;19.672;2022-11-03T07:44:40;101575.78;;;7.45;100.00
61908;BME280;47864;52.526;19.672;2022-11-03T07:46:42;101608.47;;;7.68;100.00
61908;BME280;47864;52.526;19.672;2022-11-03T07:48:46;101572.28;;;7.45;100.00
61908;BME280;47864;52.526;19.672;2022-11-03T07:50:50;101595.81;;;7.73;100.00
61908;BME280;47864;52.526;19.672;2022-11-03T07:52:53;101547.69;;;7.57;100.00
61908;BME280;47864;52.526;19.672;2022-11-03T07:54:55;101559.66;;;7.86;100.00
61908;BME280;47864;52.526;19.672;2022-11-03T07:57:04;101532.88;;;7.91;100.00
61908;BME280;47864;52.526;19.672;2022-11-03T07:59:10;101605.91;;;8.28;100.00
61908;BME280;47864;52.526;19.672;2022-11-03T08:01:30;101612.06;;;8.16;100.00
61908;BME280;47864;52.526;19.672;2022-11-03T08:03:43;101557.84;;;7.87;100.00
61908;BME280;47864;52.526;19.672;2022-11-03T08:05:46;101538.59;;;7.97;100.00
61908;BME280;47864;52.526;19.672;2022-11-03T08:07:48;101607.44;;;8.56;100.00
61908;BME280;47864;52.526;19.672;2022-11-03T08:09:50;101522.13;;;8.18;100.00
61908;BME280;47864;52.526;19.672;2022-11-03T08:11:52;101557.41;;;8.53;100.00
61908;BME280;47864;52.526;19.672;2022-11-03T08:13:54;101524.59;;;8.32;100.00
61908;BME280;47864;52.526;19.672;2022-11-03T08:15:57;101600.81;;;8.86;100.00
61908;BME280;47864;52.526;19.672;2022-11-03T08:17:59;101577.00;;;8.86;100.00
61908;BME280;47864;52.526;19.672;2022-11-03T08:20:01;101569.78;;;8.88;100.00
61908;BME280;47864;52.526;19.672;2022-11-03T08:22:02;101533.59;;;8.88;100.00
61908;BME280;47864;52.526;19.672;2022-11-03T08:24:04;101543.59;;;8.96;100.00
61908;BME280;47864;52.526;19.672;2022-11-03T08:26:06;101521.91;;;8.91;100.00
61908;BME280;47864;52.526;19.672;2022-11-03T08:28:08;101549.06;;;9.28;100.00
61908;BME280;47864;52.526;19.672;2022-11-03T08:30:10;101590.47;;;9.73;100.00
61908;BME280;47864;52.526;19.672;2022-11-03T08:32:12;101558.91;;;9.59;100.00
61908;BME280;47864;52.526;19.672;2022-11-03T08:34:14;101593.22;;;9.72;100.00
61908;BME280;47864;52.526;19.672;2022-11-03T08:36:16;101537.25;;;9.54;100.00
61908;BME280;47864;52.526;19.672;2022-11-03T08:38:18;101556.00;;;9.96;100.00
61908;BME280;47864;52.526;19.672;2022-11-03T08:40:19;101531.44;;;9.82;100.00
61908;BME280;47864;52.526;19.672;2022-11-03T08:42:21;101532.66;;;9.67;100.00
61908;BME280;47864;52.526;19.672;2022-11-03T08:44:23;101508.81;;;9.78;100.00
61908;BME280;47864;52.526;19.672;2022-11-03T08:46:25;101569.50;;;10.47;100.00
61908;BME280;47864;52.526;19.672;2022-11-03T08:48:27;101572.13;;;10.58;100.00
61908;BME280;47864;52.526;19.672;2022-11-03T08:50:28;101567.72;;;10.68;100.00
61908;BME280;47864;52.526;19.672;2022-11-03T08:52:30;101563.19;;;10.80;100.00
61908;BME280;47864;52.526;19.672;2022-11-03T08:54:32;101523.97;;;10.62;100.00
61908;BME280;47864;52.526;19.672;2022-11-03T08:56:34;101493.56;;;10.46;100.00
61908;BME280;47864;52.526;19.672;2022-11-03T08:58:35;101428.84;;;10.05;100.00
61908;BME280;47864;52.526;19.672;2022-11-03T09:00:37;101557.78;;;11.02;100.00
61908;BME280;47864;52.526;19.672;2022-11-03T09:02:43;101528.44;;;11.03;100.00
61908;BME280;47864;52.526;19.672;2022-11-03T09:04:45;101505.97;;;11.07;100.00
61908;BME280;47864;52.526;19.672;2022-11-03T09:06:46;101568.44;;;11.32;100.00
61908;BME280;47864;52.526;19.672;2022-11-03T09:08:48;101488.31;;;10.76;100.00
61908;BME280;47864;52.526;19.672;2022-11-03T09:11:10;101554.06;;;11.14;100.00
61908;BME280;47864;52.526;19.672;2022-11-03T09:13:12;101498.75;;;11.19;100.00
61908;BME280;47864;52.526;19.672;2022-11-03T09:15:13;101489.25;;;11.17;100.00
61908;BME280;47864;52.526;19.672;2022-11-03T09:17:15;101532.06;;;11.63;100.00
61908;BME280;47864;52.526;19.672;2022-11-03T09:19:17;101526.34;;;11.37;100.00
61908;BME280;47864;52.526;19.672;2022-11-03T09:21:19;101562.72;;;11.67;100.00
61908;BME280;47864;52.526;19.672;2022-11-03T09:23:21;101518.72;;;11.54;100.00
61908;BME280;47864;52.526;19.672;2022-11-03T09:25:22;101545.03;;;11.77;100.00
61908;BME280;47864;52.526;19.672;2022-11-03T09:27:24;101465.84;;;11.41;100.00
61908;BME280;47864;52.526;19.672;2022-11-03T09:29:26;101404.53;;;11.14;100.00
61908;BME280;47864;52.526;19.672;2022-11-03T09:31:41;101518.50;;;12.06;100.00
61908;BME280;47864;52.526;19.672;2022-11-03T09:33:42;101541.47;;;12.17;100.00
61908;BME280;47864;52.526;19.672;2022-11-03T09:35:44;101531.66;;;12.27;100.00
61908;BME280;47864;52.526;19.672;2022-11-03T09:37:46;101501.00;;;12.23;100.00
61908;BME280;47864;52.526;19.672;2022-11-03T09:39:48;101494.13;;;12.20;100.00
61908;BME280;47864;52.526;19.672;2022-11-03T09:41:50;101526.06;;;12.30;100.00
61908;BME280;47864;52.526;19.672;2022-11-03T09:43:59;101447.81;;;12.13;100.00
61908;BME280;47864;52.526;19.672;2022-11-03T09:46:01;101461.38;;;12.30;100.00
61908;BME280;47864;52.526;19.672;2022-11-03T09:48:03;101491.63;;;12.57;100.00
61908;BME280;47864;52.526;19.672;2022-11-03T09:50:12;101516.13;;;12.71;100.00
61908;BME280;47864;52.526;19.672;2022-11-03T09:52:20;101453.94;;;12.52;100.00
61908;BME280;47864;52.526;19.672;2022-11-03T09:54:23;101529.25;;;13.01;100.00
61908;BME280;47864;52.526;19.672;2022-11-03T09:56:25;101470.72;;;12.63;100.00
61908;BME280;47864;52.526;19.672;2022-11-03T09:58:26;101480.22;;;12.84;98.87
61908;BME280;47864;52.526;19.672;2022-11-03T10:00:28;101518.75;;;13.00;96.62
61908;BME280;47864;52.526;19.672;2022-11-03T10:02:31;101492.53;;;12.85;96.15
61908;BME280;47864;52.526;19.672;2022-11-03T10:04:33;101499.06;;;13.10;97.13
61908;BME280;47864;52.526;19.672;2022-11-03T10:06:35;101477.91;;;13.09;95.74
61908;BME280;47864;52.526;19.672;2022-11-03T10:08:38;101403.78;;;12.67;89.56
61908;BME280;47864;52.526;19.672;2022-11-03T10:10:41;101483.53;;;13.15;88.95
61908;BME280;47864;52.526;19.672;2022-11-03T10:12:43;101451.88;;;12.93;89.27
61908;BME280;47864;52.526;19.672;2022-11-03T10:14:45;101481.31;;;13.01;91.80
61908;BME280;47864;52.526;19.672;2022-11-03T10:16:55;101504.47;;;13.38;91.75
61908;BME280;47864;52.526;19.672;2022-11-03T10:18:57;101510.75;;;13.46;88.44
61908;BME280;47864;52.526;19.672;2022-11-03T10:21:08;101487.72;;;13.18;91.53
61908;BME280;47864;52.526;19.672;2022-11-03T10:23:13;101484.50;;;13.14;91.25
61908;BME280;47864;52.526;19.672;2022-11-03T10:25:34;101503.88;;;13.16;89.73
61908;BME280;47864;52.526;19.672;2022-11-03T10:27:36;101458.88;;;12.94;91.02
61908;BME280;47864;52.526;19.672;2022-11-03T10:29:38;101487.94;;;13.34;92.16
61908;BME280;47864;52.526;19.672;2022-11-03T10:31:45;101499.41;;;13.34;91.85
61908;BME280;47864;52.526;19.672;2022-11-03T10:33:52;101497.97;;;13.50;93.03
61908;BME280;47864;52.526;19.672;2022-11-03T10:35:59;101432.03;;;13.24;90.28
61908;BME280;47864;52.526;19.672;2022-11-03T10:38:29;101430.53;;;13.40;86.17
61908;BME280;47864;52.526;19.672;2022-11-03T10:40:35;101462.53;;;13.40;86.96
61908;BME280;47864;52.526;19.672;2022-11-03T10:42:57;101493.69;;;13.66;89.14
61908;BME280;47864;52.526;19.672;2022-11-03T10:45:19;101439.16;;;13.51;85.90
61908;BME280;47864;52.526;19.672;2022-11-03T10:47:32;101419.84;;;13.49;85.80
61908;BME280;47864;52.526;19.672;2022-11-03T10:49:34;101365.47;;;13.15;83.58
61908;BME280;47864;52.526;19.672;2022-11-03T10:51:45;101429.25;;;13.16;83.70
61908;BME280;47864;52.526;19.672;2022-11-03T10:53:47;101443.72;;;13.41;81.66
61908;BME280;47864;52.526;19.672;2022-11-03T10:55:49;101434.75;;;13.42;83.45
61908;BME280;47864;52.526;19.672;2022-11-03T10:57:52;101479.97;;;13.79;83.25
61908;BME280;47864;52.526;19.672;2022-11-03T10:59:54;101433.44;;;13.74;81.09
61908;BME280;47864;52.526;19.672;2022-11-03T11:01:57;101465.75;;;14.24;78.12
61908;BME280;47864;52.526;19.672;2022-11-03T11:03:59;101456.44;;;14.28;74.52